Time;durP1;ratioP1;P1;durP2;ratioP2;P2;SDS_P1;SDS_P2;PMS_P1;PMS_P2;Temp;Humidity;BMP_temperature;BMP_pressure;BME280_temperature;BME280_humidity;BME280_pressure;Samples;Min_cycle;Max_cycle;Signal;HPM_P1;HPM_P2
2022/03/22 00:01:31;;;;;;;41.22;18.08;;;;;;;3.94;37.17;101968.56;6373653;27;20054;-68
2022/03/22 00:04:32;;;;;;;46.97;18.63;;;;;;;3.97;37.29;101972.84;6352207;27;20053;-69
2022/03/22 00:07:33;;;;;;;38.92;18.63;;;;;;;3.97;37.21;101965.09;6348963;28;20039;-71
2022/03/22 00:10:34;;;;;;;42.80;19.38;;;;;;;3.95;37.30;101961.66;6353070;27;20162;-71
2022/03/22 00:13:35;;;;;;;49.97;18.95;;;;;;;4.01;37.36;101972.84;6374330;27;20035;-71
2022/03/22 00:16:37;;;;;;;40.10;19.45;;;;;;;3.93;37.63;101964.28;6375683;27;20096;-71
2022/03/22 00:19:38;;;;;;;46.15;20.50;;;;;;;3.97;37.62;101965.97;6373907;27;20066;-71
2022/03/22 00:22:40;;;;;;;41.53;18.75;;;;;;;3.95;37.51;101966.84;6350109;28;20036;-71
2022/03/22 00:25:41;;;;;;;38.85;18.38;;;;;;;3.89;37.80;101966.84;6331734;28;20043;-71
2022/03/22 00:28:42;;;;;;;43.60;18.40;;;;;;;3.90;37.96;101958.25;6347509;28;20122;-71
2022/03/22 00:31:42;;;;;;;42.25;19.77;;;;;;;3.90;37.78;101961.69;6348723;28;20089;-71
2022/03/22 00:34:46;;;;;;;39.05;18.60;;;;;;;3.86;38.65;101961.72;6348498;28;20556;-71
2022/03/22 00:37:50;;;;;;;43.72;19.80;;;;;;;3.87;38.47;101958.25;6349806;28;20047;-71
2022/03/22 00:40:51;;;;;;;40.42;19.08;;;;;;;3.73;38.56;101966.06;6348431;28;20048;-71
2022/03/22 00:43:52;;;;;;;37.85;18.00;;;;;;;3.68;39.08;101966.03;6350035;28;20775;-71
2022/03/22 00:46:53;;;;;;;41.83;19.75;;;;;;;3.59;39.24;101963.50;6349434;28;20046;-71
2022/03/22 00:49:54;;;;;;;42.97;20.27;;;;;;;3.55;39.33;101965.19;6349709;28;20039;-71
2022/03/22 00:52:57;;;;;;;43.35;19.25;;;;;;;3.50;39.92;101973.81;6348188;28;20280;-71
2022/03/22 00:56:01;;;;;;;42.20;19.73;;;;;;;3.40;40.00;101971.25;6382138;27;20484;-71
2022/03/22 01:02:21;;;;;;;42.72;19.55;;;;;;;3.24;40.32;101974.69;6349335;28;20036;-71
2022/03/22 01:05:23;;;;;;;38.15;18.65;;;;;;;3.23;40.70;101963.53;6347700;28;20052;-71
2022/03/22 01:08:24;;;;;;;41.45;19.73;;;;;;;3.19;40.39;101966.97;6349145;28;20062;-70
2022/03/22 01:11:24;;;;;;;42.20;19.20;;;;;;;3.27;40.44;101966.09;6358824;27;20494;-71
2022/03/22 01:14:28;;;;;;;41.90;20.52;;;;;;;3.29;40.34;101961.78;6373086;27;20490;-70
2022/03/22 01:17:31;;;;;;;36.70;18.63;;;;;;;3.18;40.26;101969.53;6374265;27;20054;-71
2022/03/22 01:20:37;;;;;;;38.40;18.65;;;;;;;3.14;41.08;101966.09;6373709;27;20067;-70
2022/03/22 01:23:38;;;;;;;43.95;19.00;;;;;;;3.11;41.64;101971.25;6373610;27;20101;-71
2022/03/22 01:26:40;;;;;;;40.72;18.60;;;;;;;3.05;41.19;101965.22;6373650;27;20071;-71
2022/03/22 01:29:41;;;;;;;42.58;19.20;;;;;;;2.99;41.86;101964.38;6374057;27;20043;-71
2022/03/22 01:32:43;;;;;;;43.15;19.73;;;;;;;2.98;41.49;101960.03;6373884;27;20043;-70
2022/03/22 01:35:44;;;;;;;40.00;19.33;;;;;;;2.90;42.33;101963.47;6372616;27;20119;-71
2022/03/22 01:38:46;;;;;;;40.15;18.40;;;;;;;2.92;41.51;101961.75;6373235;27;20043;-71
2022/03/22 01:41:47;;;;;;;46.60;19.60;;;;;;;2.90;41.50;101963.47;6373611;27;20043;-71
2022/03/22 01:44:52;;;;;;;42.78;19.08;;;;;;;2.86;41.04;101956.59;6373634;27;20494;-71
2022/03/22 01:48:00;;;;;;;37.28;18.60;;;;;;;2.93;41.28;101955.75;6373556;27;20066;-70
2022/03/22 01:51:01;;;;;;;42.38;19.50;;;;;;;2.93;41.20;101953.19;6372273;27;20047;-71
2022/03/22 01:54:02;;;;;;;37.03;18.55;;;;;;;2.96;41.54;101961.75;6372058;27;20092;-71
2022/03/22 01:57:03;;;;;;;37.20;19.00;;;;;;;2.93;42.93;101955.75;6373033;27;20047;-71
2022/03/22 02:00:07;;;;;;;40.50;19.98;;;;;;;2.94;41.01;101955.75;6371829;27;20055;-70
2022/03/22 02:06:31;;;;;;;41.78;18.85;;;;;;;3.03;41.21;101949.75;6371109;27;20047;-70
2022/03/22 02:09:33;;;;;;;38.65;18.63;;;;;;;2.99;41.22;101953.19;6373181;27;20072;-71
2022/03/22 02:12:34;;;;;;;45.72;19.67;;;;;;;2.96;40.73;101950.59;6351860;27;20058;-71
2022/03/22 02:15:35;;;;;;;39.38;18.35;;;;;;;2.98;40.59;101951.47;6346042;28;20044;-70
2022/03/22 02:18:36;;;;;;;38.42;18.85;;;;;;;3.00;40.88;101949.75;6312559;28;20080;-71
2022/03/22 02:21:40;;;;;;;39.65;19.55;;;;;;;3.00;40.96;101952.31;6347382;28;20040;-71
2022/03/22 02:24:41;;;;;;;40.88;19.25;;;;;;;3.00;41.11;101947.16;6347207;28;20144;-71
2022/03/22 02:27:46;;;;;;;31.70;18.23;;;;;;;2.93;41.55;101953.19;6328964;28;20147;-71
2022/03/22 02:30:48;;;;;;;36.63;19.10;;;;;;;2.90;41.30;101951.44;6347041;28;20068;-70
2022/03/22 02:33:49;;;;;;;40.72;18.38;;;;;;;2.88;41.56;101955.75;6347018;28;20070;-70
2022/03/22 02:36:50;;;;;;;37.53;19.27;;;;;;;2.83;42.47;101950.59;6346835;28;20122;-71
2022/03/22 02:39:51;;;;;;;38.03;18.90;;;;;;;2.73;42.11;101948.84;6345587;28;20051;-71
2022/03/22 02:42:54;;;;;;;43.33;18.92;;;;;;;2.70;41.99;101954.00;6345596;28;20066;-71
2022/03/22 02:45:54;;;;;;;37.08;18.52;;;;;;;2.64;42.08;101951.44;6345345;28;20487;-70
2022/03/22 02:48:55;;;;;;;38.65;19.38;;;;;;;2.64;42.03;101956.56;6371397;27;20043;-70
2022/03/22 02:51:56;;;;;;;37.67;19.15;;;;;;;2.58;42.80;101959.13;6353124;27;20471;-71
2022/03/22 02:54:57;;;;;;;43.75;19.30;;;;;;;2.56;42.57;101963.44;6353847;28;20049;-71
2022/03/22 02:57:58;;;;;;;34.15;18.52;;;;;;;2.48;42.75;101958.25;6372127;27;20064;-70
2022/03/22 03:01:00;;;;;;;38.63;19.08;;;;;;;2.46;42.80;101972.84;6364514;27;20428;-70
2022/03/22 03:04:01;;;;;;;43.17;19.85;;;;;;;2.39;43.42;101963.38;6346594;28;20047;-67
2022/03/22 03:07:02;;;;;;;39.58;19.17;;;;;;;2.39;42.93;101971.97;6345107;28;20064;-67
2022/03/22 03:10:05;;;;;;;40.33;19.75;;;;;;;2.35;43.50;101974.53;6345222;28;20055;-68
2022/03/22 03:13:06;;;;;;;42.95;19.42;;;;;;;2.30;43.22;101973.66;6346287;28;20122;-67
2022/03/22 03:16:07;;;;;;;41.50;19.48;;;;;;;2.29;42.92;101971.94;6345540;28;20403;-67
2022/03/22 03:19:08;;;;;;;42.53;19.15;;;;;;;2.27;43.16;101976.22;6344397;28;20071;-67
2022/03/22 03:22:09;;;;;;;42.22;19.88;;;;;;;2.24;43.47;101974.47;6361168;28;20394;-68
2022/03/22 03:25:10;;;;;;;48.10;21.70;;;;;;;2.15;43.80;101980.44;6371649;27;20050;-68
2022/03/22 03:28:11;;;;;;;39.05;19.48;;;;;;;2.18;43.86;101975.31;6370404;28;20481;-67
2022/03/22 03:31:12;;;;;;;41.80;20.42;;;;;;;2.18;43.98;101974.44;6370204;28;20092;-67
2022/03/22 03:34:13;;;;;;;45.78;20.65;;;;;;;2.14;43.44;101972.72;6367309;27;20039;-67
2022/03/22 03:37:14;;;;;;;39.85;19.20;;;;;;;2.09;43.82;101969.25;6344609;28;20040;-67
2022/03/22 03:40:15;;;;;;;55.05;21.02;;;;;;;2.04;43.62;101965.78;6344646;28;20132;-67
2022/03/22 03:43:16;;;;;;;45.95;20.80;;;;;;;2.05;44.07;101970.09;6344799;28;20044;-67
2022/03/22 03:49:38;;;;;;;44.78;20.08;;;;;;;1.98;44.52;101966.66;6345967;28;20660;-68
2022/03/22 03:52:39;;;;;;;43.20;20.42;;;;;;;1.96;44.26;101970.94;6344524;28;20036;-67
2022/03/22 03:55:40;;;;;;;46.80;19.77;;;;;;;1.93;44.77;101969.16;6344508;28;20062;-67
2022/03/22 03:58:40;;;;;;;42.58;19.17;;;;;;;1.89;44.37;101967.44;6345566;28;20047;-67
2022/03/22 04:01:43;;;;;;;38.92;19.05;;;;;;;1.90;44.52;101969.16;6346032;28;20442;-67
2022/03/22 04:04:44;;;;;;;50.42;20.40;;;;;;;1.93;44.82;101978.63;6332425;28;20054;-67
2022/03/22 04:07:46;;;;;;;42.70;20.13;;;;;;;1.90;44.79;101983.75;6374123;27;20054;-67
2022/03/22 04:10:47;;;;;;;41.28;20.30;;;;;;;1.87;44.35;101974.28;6374576;27;20047;-67
2022/03/22 04:13:48;;;;;;;51.85;19.77;;;;;;;1.87;44.63;101979.44;6375846;27;20047;-67
2022/03/22 04:16:50;;;;;;;41.08;20.05;;;;;;;1.78;45.06;101985.41;6374424;27;20039;-67
2022/03/22 04:19:51;;;;;;;39.25;20.38;;;;;;;1.87;44.71;101991.44;6374358;27;20047;-67
2022/03/22 04:22:52;;;;;;;43.10;20.02;;;;;;;1.90;44.70;101994.91;6374434;27;20051;-68
2022/03/22 04:25:53;;;;;;;41.00;19.92;;;;;;;1.87;44.96;101994.88;6375692;27;20047;-68
2022/03/22 04:35:33;;;;;;;44.72;20.73;;;;;;;1.84;45.66;102009.47;6374311;27;20479;-67
2022/03/22 04:38:34;;;;;;;44.22;19.45;;;;;;;1.85;44.75;102006.88;6375051;27;20054;-67
2022/03/22 04:41:35;;;;;;;41.45;20.75;;;;;;;1.81;44.58;102006.03;6362230;27;20067;-67
2022/03/22 04:44:36;;;;;;;46.83;20.65;;;;;;;1.79;45.00;102009.41;6348323;28;20092;-66
2022/03/22 04:47:37;;;;;;;47.97;20.50;;;;;;;1.80;45.50;102001.72;6349239;28;20048;-66
2022/03/22 04:50:38;;;;;;;51.13;20.85;;;;;;;1.82;44.81;102006.88;6348347;28;20467;-67
2022/03/22 04:56:58;;;;;;;49.03;20.83;;;;;;;1.88;44.66;101990.63;6347638;28;20115;-68
2022/03/22 04:59:58;;;;;;;47.67;21.88;;;;;;;1.98;44.76;102000.97;6349121;28;20048;-68
2022/03/22 05:03:00;;;;;;;51.42;21.23;;;;;;;1.96;45.23;102005.25;6349241;28;20092;-68
2022/03/22 05:09:22;;;;;;;39.83;19.48;;;;;;;2.04;44.77;101994.13;6348682;28;20050;-67
2022/03/22 05:12:23;;;;;;;44.50;21.55;;;;;;;2.11;44.47;102006.19;6348758;28;20054;-67
2022/03/22 05:15:24;;;;;;;48.55;24.00;;;;;;;2.24;44.91;102005.38;6360727;27;20039;-67
2022/03/22 05:18:26;;;;;;;57.55;26.63;;;;;;;2.28;44.99;102014.84;6368127;27;20039;-67
2022/03/22 05:21:27;;;;;;;54.42;25.05;;;;;;;2.32;44.15;102014.00;6373035;27;20039;-67
2022/03/22 05:24:28;;;;;;;72.90;29.63;;;;;;;2.51;43.85;102021.81;6372841;27;20039;-68
2022/03/22 05:27:29;;;;;;;59.55;27.15;;;;;;;2.59;43.76;102005.53;6372763;27;20043;-71
2022/03/22 05:30:32;;;;;;;44.95;24.27;;;;;;;2.79;43.05;102012.47;6373980;27;20116;-71
2022/03/22 05:33:33;;;;;;;44.63;22.95;;;;;;;2.97;42.46;102019.38;6374087;27;20065;-71
2022/03/22 05:36:34;;;;;;;56.92;26.08;;;;;;;3.04;42.74;102013.34;6373647;27;20483;-71
2022/03/22 05:39:35;;;;;;;57.60;25.60;;;;;;;3.22;42.40;102007.38;6348832;27;20036;-71
2022/03/22 05:42:45;;;;;;;42.92;21.80;;;;;;;3.34;41.94;102020.28;6350560;27;20066;-71
2022/03/22 05:45:48;;;;;;;44.42;20.75;;;;;;;3.52;41.66;102016.84;6351621;27;20054;-71
2022/03/22 05:48:50;;;;;;;43.63;20.67;;;;;;;3.70;41.46;102017.69;6372295;27;20043;-71
2022/03/22 05:51:51;;;;;;;37.87;20.30;;;;;;;3.85;40.84;102015.09;6372018;27;20039;-71
2022/03/22 05:54:51;;;;;;;40.30;19.80;;;;;;;4.02;40.86;102020.22;6372162;27;20050;-71
2022/03/22 05:57:52;;;;;;;40.60;20.15;;;;;;;4.20;40.58;102014.09;6372210;27;20487;-71
2022/03/22 06:00:53;;;;;;;50.75;20.83;;;;;;;4.37;40.24;102014.06;6370876;27;20078;-71
2022/03/22 06:03:54;;;;;;;43.47;20.70;;;;;;;4.52;40.22;102015.72;6370966;27;20035;-72
2022/03/22 06:06:55;;;;;;;45.25;20.83;;;;;;;4.58;39.56;102026.03;6370984;27;20134;-72
2022/03/22 06:09:56;;;;;;;46.03;21.80;;;;;;;4.85;39.75;102020.72;6353679;27;20043;-71
2022/03/22 06:12:57;;;;;;;51.28;22.30;;;;;;;4.98;39.67;102021.53;6372061;27;20043;-72
2022/03/22 06:15:58;;;;;;;43.17;22.90;;;;;;;5.24;39.49;102023.06;6353529;27;20403;-72
2022/03/22 06:18:59;;;;;;;44.95;21.02;;;;;;;5.32;39.47;102026.44;6387766;27;20069;-72
2022/03/22 06:22:00;;;;;;;42.28;19.42;;;;;;;5.52;38.60;102025.41;6371819;27;20076;-71
2022/03/22 06:25:01;;;;;;;48.13;23.30;;;;;;;5.69;37.92;102020.09;6370662;27;20455;-71
2022/03/22 06:28:02;;;;;;;49.33;21.70;;;;;;;5.85;38.77;102019.09;6371674;27;20050;-72
2022/03/22 06:31:02;;;;;;;48.75;20.75;;;;;;;5.97;37.37;102025.88;6336622;27;20111;-72
2022/03/22 06:34:04;;;;;;;41.13;21.25;;;;;;;6.14;37.81;102018.81;6370394;27;20453;-72
2022/03/22 06:37:05;;;;;;;49.17;22.50;;;;;;;6.36;37.81;102022.00;6370132;27;20280;-72
2022/03/22 06:40:10;;;;;;;46.72;22.45;;;;;;;6.61;37.93;102022.56;6371326;27;20398;-72
2022/03/22 06:43:14;;;;;;;42.40;21.02;;;;;;;6.76;37.32;102026.69;6371311;27;20270;-72
2022/03/22 06:46:15;;;;;;;36.15;17.98;;;;;;;6.84;36.24;102026.59;6371344;27;20410;-71
2022/03/22 06:49:16;;;;;;;37.08;19.63;;;;;;;7.05;36.22;102036.63;6352859;27;20039;-71
2022/03/22 06:52:17;;;;;;;35.08;18.65;;;;;;;7.23;35.81;102025.13;6371173;27;20449;-72
2022/03/22 06:55:22;;;;;;;41.35;19.38;;;;;;;7.41;35.46;102031.78;6369888;27;20083;-70
2022/03/22 06:58:24;;;;;;;40.78;20.40;;;;;;;7.68;36.85;102032.19;6369703;27;20108;-69
2022/03/22 07:01:25;;;;;;;39.15;19.92;;;;;;;7.95;36.03;102032.56;6370889;27;20047;-70
2022/03/22 07:04:27;;;;;;;41.75;21.80;;;;;;;8.02;34.96;102031.56;6370983;27;20046;-70
2022/03/22 07:07:28;;;;;;;37.85;19.60;;;;;;;8.28;34.48;102031.94;6371034;27;20043;-70
2022/03/22 07:10:33;;;;;;;42.78;19.58;;;;;;;8.51;34.60;102040.19;6369592;28;20096;-70
2022/03/22 07:13:34;;;;;;;36.63;18.67;;;;;;;8.72;34.28;102046.69;6370997;27;20043;-70
2022/03/22 07:16:36;;;;;;;39.28;18.65;;;;;;;8.88;33.70;102046.31;6371533;28;20043;-71
2022/03/22 07:19:37;;;;;;;36.55;17.55;;;;;;;8.97;33.07;102050.44;6369579;28;20046;-70
2022/03/22 07:22:38;;;;;;;34.40;18.10;;;;;;;9.19;32.52;102044.75;6370895;28;20118;-67
2022/03/22 07:25:39;;;;;;;39.63;17.52;;;;;;;9.37;32.23;102046.03;6369602;28;20039;-70
2022/03/22 07:28:40;;;;;;;43.78;19.88;;;;;;;9.53;32.67;102043.94;6370703;28;20043;-72
2022/03/22 07:31:41;;;;;;;33.88;16.85;;;;;;;9.66;32.67;102045.34;6386705;27;20043;-72
2022/03/22 07:34:43;;;;;;;29.83;16.30;;;;;;;9.73;31.66;102046.88;6369567;28;20062;-70
2022/03/22 07:37:44;;;;;;;35.80;16.48;;;;;;;9.96;31.76;102041.06;6372787;27;20095;-70
2022/03/22 07:40:45;;;;;;;31.75;16.20;;;;;;;10.17;31.76;102046.59;6375668;27;20035;-70
2022/03/22 07:43:46;;;;;;;28.08;16.25;;;;;;;10.40;31.29;102040.78;6375596;27;20068;-70
2022/03/22 07:46:47;;;;;;;34.08;15.82;;;;;;;10.66;31.55;102050.44;6375743;27;20202;-71
2022/03/22 07:53:08;;;;;;;32.83;15.13;;;;;;;10.94;31.08;102049.63;6374549;27;20035;-67
2022/03/22 07:56:10;;;;;;;26.58;14.65;;;;;;;11.13;30.80;102042.94;6356982;27;20031;-67
2022/03/22 07:59:11;;;;;;;37.33;15.80;;;;;;;11.27;29.68;102043.34;6373994;27;20129;-67
2022/03/22 08:02:11;;;;;;;30.33;14.00;;;;;;;11.27;29.25;102040.72;6357071;27;20046;-67
2022/03/22 08:05:13;;;;;;;32.90;17.08;;;;;;;11.56;30.20;102044.16;6374161;27;20180;-67
2022/03/22 08:08:14;;;;;;;30.98;16.13;;;;;;;11.66;29.61;102037.69;6373836;27;20047;-67
2022/03/22 08:11:16;;;;;;;35.38;16.27;;;;;;;11.86;30.06;102034.41;6373627;27;20066;-67
2022/03/22 08:14:19;;;;;;;29.13;15.60;;;;;;;11.94;29.17;102026.31;6374941;27;20043;-71
2022/03/22 08:17:20;;;;;;;25.80;13.77;;;;;;;11.91;27.88;102023.81;6356690;27;20047;-71
2022/03/22 08:20:24;;;;;;;30.80;14.70;;;;;;;11.99;27.99;102019.16;6374702;27;20035;-71
2022/03/22 08:23:24;;;;;;;37.47;15.45;;;;;;;12.50;29.50;102023.41;6374626;27;20039;-68
2022/03/22 08:26:25;;;;;;;35.17;14.63;;;;;;;12.54;27.63;102021.53;6374617;27;20066;-71
2022/03/22 08:29:26;;;;;;;30.20;14.23;;;;;;;12.67;28.00;102017.50;6374404;27;20059;-71
2022/03/22 08:32:27;;;;;;;40.75;16.20;;;;;;;12.69;27.29;102018.31;6374591;27;20410;-71
2022/03/22 08:35:28;;;;;;;31.50;15.50;;;;;;;13.04;28.11;102016.06;6374400;27;20043;-67
2022/03/22 08:38:29;;;;;;;26.05;14.32;;;;;;;13.14;27.08;102003.44;6373433;27;20035;-67
2022/03/22 08:41:31;;;;;;;30.30;14.52;;;;;;;13.19;26.69;102013.72;6373140;27;20147;-67
2022/03/22 08:44:32;;;;;;;26.23;14.73;;;;;;;13.44;27.19;102003.97;6355897;27;20046;-67
2022/03/22 08:47:35;;;;;;;22.95;14.02;;;;;;;13.73;26.67;102003.63;6372923;27;20135;-68
2022/03/22 08:50:37;;;;;;;27.52;14.05;;;;;;;13.82;26.03;102003.25;6371617;27;20079;-69
2022/03/22 08:53:38;;;;;;;25.05;13.75;;;;;;;13.88;25.20;101995.13;6374071;27;20099;-68
2022/03/22 08:56:39;;;;;;;25.55;13.77;;;;;;;14.05;25.87;101989.13;6372600;27;20361;-67
2022/03/22 08:59:40;;;;;;;22.55;12.80;;;;;;;14.34;26.23;101989.56;6355387;27;20142;-68
2022/03/22 09:02:43;;;;;;;31.02;12.75;;;;;;;14.31;26.70;101991.41;6372587;27;20039;-72
2022/03/22 09:09:10;;;;;;;21.65;11.43;;;;;;;14.54;25.09;101989.50;6373524;27;20035;-71
2022/03/22 09:12:12;;;;;;;24.02;11.75;;;;;;;14.78;23.97;101976.13;6372445;27;20403;-72
2022/03/22 09:15:13;;;;;;;25.90;12.48;;;;;;;15.04;23.63;101973.09;6373325;27;20532;-72
2022/03/22 09:18:14;;;;;;;21.38;11.68;;;;;;;15.10;24.11;101977.19;6373436;27;20035;-72
2022/03/22 09:21:16;;;;;;;22.52;11.90;;;;;;;15.27;24.34;101968.47;6372203;27;20427;-71
2022/03/22 09:24:17;;;;;;;18.75;11.20;;;;;;;15.65;23.96;101961.25;6373094;27;20096;-72
2022/03/22 09:27:18;;;;;;;16.10;10.40;;;;;;;15.56;24.00;101958.25;6371886;27;20449;-72
2022/03/22 09:30:21;;;;;;;24.63;11.17;;;;;;;15.60;23.70;101960.63;6372984;27;20039;-72
2022/03/22 09:33:22;;;;;;;20.23;11.25;;;;;;;15.92;24.23;101952.88;6371910;27;20384;-72
2022/03/22 09:36:23;;;;;;;20.25;11.23;;;;;;;15.70;24.09;101946.06;6371612;27;20040;-71
2022/03/22 09:39:24;;;;;;;20.73;10.85;;;;;;;15.82;23.93;101944.59;6372778;27;20036;-68
2022/03/22 09:42:27;;;;;;;22.40;11.65;;;;;;;16.29;23.64;101942.97;6372729;27;20039;-68
2022/03/22 09:45:32;;;;;;;22.92;10.68;;;;;;;16.15;23.90;101945.50;6372588;27;20043;-68
2022/03/22 09:48:34;;;;;;;20.52;10.98;;;;;;;16.36;24.13;101935.56;6354487;27;20074;-67
2022/03/22 09:51:45;;;;;;;21.80;11.85;;;;;;;16.80;24.14;101945.38;6371256;27;20049;-68
2022/03/22 09:54:46;;;;;;;21.88;11.63;;;;;;;16.89;23.59;101935.19;6372501;27;20096;-67
2022/03/22 09:57:47;;;;;;;20.63;11.17;;;;;;;16.75;24.18;101927.19;6359094;27;20131;-68
2022/03/22 10:00:49;;;;;;;21.25;11.07;;;;;;;16.65;26.60;101928.66;6351973;27;20096;-68
2022/03/22 10:04:00;;;;;;;17.88;10.38;;;;;;;16.43;23.63;101927.25;6371870;27;20540;-72
2022/03/22 10:07:03;;;;;;;19.08;10.85;;;;;;;16.39;24.02;101912.56;6370944;27;20044;-68
2022/03/22 10:10:09;;;;;;;22.20;11.73;;;;;;;16.38;24.26;101908.19;6371944;27;20039;-71
2022/03/22 10:13:14;;;;;;;21.23;11.30;;;;;;;17.04;24.52;101915.00;6372091;27;20054;-72
2022/03/22 10:16:15;;;;;;;19.35;9.73;;;;;;;17.15;23.68;101905.59;6371717;27;20506;-71
2022/03/22 10:19:23;;;;;;;15.40;9.60;;;;;;;17.07;23.66;101900.75;6370696;27;20043;-72
2022/03/22 10:22:26;;;;;;;18.65;10.15;;;;;;;17.40;23.67;101890.00;6371599;27;20413;-72
2022/03/22 10:25:32;;;;;;;18.70;10.43;;;;;;;17.67;23.93;101891.91;6371793;27;20042;-72
2022/03/22 10:28:34;;;;;;;23.85;9.48;;;;;;;17.78;22.40;101899.16;6370466;27;20069;-72
2022/03/22 10:31:38;;;;;;;18.13;9.77;;;;;;;17.63;23.12;101893.03;6371601;27;20035;-72
2022/03/22 10:34:39;;;;;;;16.25;9.63;;;;;;;17.52;24.14;101880.47;6371448;27;20062;-71
2022/03/22 10:37:51;;;;;;;18.50;9.95;;;;;;;17.80;22.38;101887.53;6371458;27;20045;-73
2022/03/22 10:40:52;;;;;;;;;;;;;;;18.10;23.79;101879.50;6371801;27;20039;-72
2022/03/22 10:44:11;;;;;;;23.83;10.45;;;;;;;18.33;22.72;101871.91;6371451;27;19981;-73
2022/03/22 10:47:12;;;;;;;22.90;10.40;;;;;;;18.02;22.58;101881.78;6369939;27;20499;-72
2022/03/22 10:50:13;;;;;;;18.02;9.63;;;;;;;18.40;22.57;101873.19;6353144;27;20054;-72
2022/03/22 10:53:20;;;;;;;17.77;10.35;;;;;;;18.38;22.67;101861.88;6369865;27;20035;-72
2022/03/22 10:56:21;;;;;;;18.95;9.75;;;;;;;18.41;22.68;101861.69;6371125;27;20390;-72
2022/03/22 10:59:27;;;;;;;19.25;11.15;;;;;;;18.65;21.97;101848.63;6369800;27;20510;-72
2022/03/22 11:02:33;;;;;;;19.45;10.13;;;;;;;18.61;22.19;101841.00;6369979;27;20149;-72
2022/03/22 11:05:34;;;;;;;16.33;9.68;;;;;;;18.76;22.82;101840.00;6371037;27;20076;-72
2022/03/22 11:08:35;;;;;;;19.15;10.32;;;;;;;19.02;22.20;101834.75;6370970;27;20035;-71
2022/03/22 11:11:36;;;;;;;16.20;10.15;;;;;;;19.01;21.94;101835.72;6368965;27;20040;-72
2022/03/22 11:14:38;;;;;;;14.80;9.13;;;;;;;19.03;21.91;101817.94;6369591;28;20047;-72
2022/03/22 11:17:40;;;;;;;16.80;9.10;;;;;;;19.28;20.90;101820.56;6352594;28;20447;-72
2022/03/22 11:20:49;;;;;;;22.25;8.80;;;;;;;19.16;20.95;101816.13;6369699;28;20035;-72
2022/03/22 11:23:51;;;;;;;16.38;8.95;;;;;;;19.38;21.00;101812.84;6370839;27;20046;-72
2022/03/22 11:26:55;;;;;;;14.88;8.40;;;;;;;19.05;20.99;101806.28;6369363;28;20047;-68
2022/03/22 11:29:56;;;;;;;16.15;8.73;;;;;;;19.48;20.88;101799.81;6370917;27;20502;-68
2022/03/22 11:36:22;;;;;;;15.95;8.50;;;;;;;19.58;20.11;101782.31;6370490;28;20068;-72
2022/03/22 11:42:54;;;;;;;15.48;9.20;;;;;;;19.37;19.94;101781.16;6370474;28;20040;-72
2022/03/22 11:45:54;;;;;;;13.65;8.65;;;;;;;19.55;19.99;101776.38;6370461;27;20047;-71
2022/03/22 11:48:55;;;;;;;13.57;8.35;;;;;;;19.39;20.24;101766.03;6369385;28;20066;-72
2022/03/22 11:52:13;;;;;;;16.83;7.82;;;;;;;19.55;20.14;101752.53;6370372;27;20118;-71
2022/03/22 11:55:16;;;;;;;13.65;7.85;;;;;;;19.75;19.15;101753.75;6369068;28;20050;-72
2022/03/22 11:58:20;;;;;;;12.20;7.25;;;;;;;19.85;18.89;101750.34;6370154;27;20054;-71
2022/03/22 12:01:21;;;;;;;16.23;7.95;;;;;;;19.77;18.93;101744.78;6352172;28;20111;-72
2022/03/22 12:04:34;;;;;;;14.87;7.83;;;;;;;19.26;19.99;101745.72;6370304;27;20491;-70
2022/03/22 12:07:37;;;;;;;17.42;7.95;;;;;;;19.63;20.31;101743.09;6370194;27;20123;-70
2022/03/22 12:10:39;;;;;;;12.15;7.55;;;;;;;19.80;19.22;101731.28;6368964;28;20043;-71
2022/03/22 12:13:45;;;;;;;11.95;6.80;;;;;;;19.73;19.35;101727.41;6335199;28;20042;-70
2022/03/22 12:16:51;;;;;;;10.50;6.40;;;;;;;19.95;18.07;101728.47;6370145;27;20047;-73
2022/03/22 12:19:52;;;;;;;13.13;7.20;;;;;;;19.66;18.65;101724.34;6370171;27;20403;-67
2022/03/22 12:23:00;;;;;;;13.27;6.80;;;;;;;20.18;18.42;101716.13;6370691;27;20069;-67
2022/03/22 12:26:02;;;;;;;10.70;6.53;;;;;;;20.38;17.40;101709.34;6373686;27;20032;-71
2022/03/22 12:29:03;;;;;;;;;;;;;;;20.49;17.55;101704.06;6374991;27;20124;-71
2022/03/22 12:32:06;;;;;;;10.63;6.15;;;;;;;20.64;16.08;101697.59;6374331;27;19924;-71
2022/03/22 12:35:10;;;;;;;13.10;6.78;;;;;;;20.65;16.62;101694.00;6373203;27;20043;-70
2022/03/22 12:38:12;;;;;;;10.55;6.65;;;;;;;20.71;17.69;101692.66;6356502;27;20046;-71
2022/03/22 12:41:13;;;;;;;15.55;7.65;;;;;;;21.05;17.75;101684.72;6374309;27;20096;-67
2022/03/22 12:44:14;;;;;;;14.40;6.85;;;;;;;21.19;17.22;101686.25;6355804;27;20046;-67
2022/03/22 12:47:16;;;;;;;12.50;6.37;;;;;;;20.97;16.76;101681.81;6372965;27;20066;-66
2022/03/22 12:50:20;;;;;;;9.23;5.95;;;;;;;20.67;16.51;101677.94;6374021;27;20475;-67
2022/03/22 12:53:22;;;;;;;12.70;6.43;;;;;;;20.75;17.50;101669.41;6372673;27;20047;-67
2022/03/22 12:56:23;;;;;;;12.90;6.43;;;;;;;21.18;16.75;101664.16;6372684;27;20487;-67
2022/03/22 12:59:24;;;;;;;10.77;5.70;;;;;;;21.10;16.45;101666.59;6373741;27;20070;-67
2022/03/22 13:02:25;;;;;;;9.10;5.75;;;;;;;20.82;15.43;101654.72;6372439;27;20047;-68
2022/03/22 13:05:27;;;;;;;9.57;5.70;;;;;;;20.90;15.11;101657.59;6373685;27;20045;-67
2022/03/22 13:11:52;;;;;;;12.03;6.23;;;;;;;20.88;15.51;101641.78;6373581;27;20097;-67
2022/03/22 13:15:07;;;;;;;14.38;7.15;;;;;;;21.44;15.51;101637.38;6373412;27;20389;-67
2022/03/22 13:18:09;;;;;;;12.45;5.78;;;;;;;20.87;14.77;101636.59;6373466;27;20372;-67
2022/03/22 13:21:10;;;;;;;11.60;6.17;;;;;;;20.92;14.65;101637.94;6372065;27;20039;-67
2022/03/22 13:24:23;;;;;;;10.10;5.63;;;;;;;20.57;15.18;101638.03;6371913;27;20039;-67
2022/03/22 13:27:24;;;;;;;9.35;5.45;;;;;;;20.66;16.61;101633.84;6371767;27;20114;-67
2022/03/22 13:30:27;;;;;;;7.90;5.33;;;;;;;20.82;14.70;101626.38;6373127;27;20394;-67
2022/03/22 13:33:35;;;;;;;11.10;5.88;;;;;;;20.91;14.80;101636.22;6373359;27;20395;-68
2022/03/22 13:36:36;;;;;;;13.38;4.57;;;;;;;21.00;14.31;101623.19;6354474;27;20142;-67
2022/03/22 13:39:40;;;;;;;8.15;5.05;;;;;;;20.86;14.24;101621.66;6372817;27;20039;-67
2022/03/22 13:43:00;;;;;;;9.85;5.78;;;;;;;21.06;15.44;101620.88;6372590;27;20032;-67
2022/03/22 13:46:02;;;;;;;7.60;4.75;;;;;;;21.21;13.80;101623.25;6371536;27;20042;-68
2022/03/22 13:49:05;;;;;;;7.97;5.05;;;;;;;20.87;13.92;101620.69;6371414;27;20070;-67
2022/03/22 13:52:07;;;;;;;9.30;5.25;;;;;;;21.11;16.60;101613.41;6371283;27;20557;-67
2022/03/22 13:55:27;;;;;;;10.25;4.65;;;;;;;21.18;14.15;101608.44;6364675;27;20067;-67
2022/03/22 13:58:36;;;;;;;7.40;4.82;;;;;;;21.05;14.30;101615.72;6350019;27;20042;-68
2022/03/22 14:01:37;;;;;;;8.45;4.88;;;;;;;20.95;13.65;101609.47;6371143;27;20120;-68
2022/03/22 14:04:38;;;;;;;11.00;5.30;;;;;;;21.29;15.02;101600.44;6369264;27;20039;-67
2022/03/22 14:07:57;;;;;;;8.20;4.87;;;;;;;21.30;15.49;101607.44;6363092;27;20035;-68
2022/03/22 14:10:59;;;;;;;17.00;7.47;;;;;;;21.20;13.99;101603.84;6372345;27;20077;-68
2022/03/22 14:14:00;;;;;;;19.27;8.55;;;;;;;21.41;13.55;101603.88;6346659;28;20469;-68
2022/03/22 14:17:00;;;;;;;8.80;5.57;;;;;;;21.05;13.66;101599.78;6346719;28;20063;-67
2022/03/22 14:20:02;;;;;;;10.90;4.67;;;;;;;20.69;13.71;101601.75;6366555;27;20379;-68
2022/03/22 14:23:06;;;;;;;10.55;4.43;;;;;;;20.48;13.60;101601.63;6371888;27;20046;-67
2022/03/22 14:26:07;;;;;;;;;;;;;;;20.40;14.09;101593.44;6372222;27;20039;-67
2022/03/22 14:29:08;;;;;;;8.70;4.60;;;;;;;20.40;14.02;101588.13;6370697;27;19919;-68
2022/03/22 14:32:10;;;;;;;9.80;4.20;;;;;;;20.51;14.27;101591.63;6370533;27;20114;-67
2022/03/22 14:38:32;;;;;;;9.55;5.22;;;;;;;20.67;14.21;101583.34;6371590;27;20039;-71
2022/03/22 14:41:35;;;;;;;7.28;4.40;;;;;;;20.73;14.52;101579.34;6370457;27;20035;-71